sensor_id;sensor_type;location;lat;lon;timestamp;pressure;altitude;pressure_sealevel;temperature;humidity
30708;BME280;17458;48.958;8.284;2022-12-07T00:00:16;100572.63;;;8.19;71.12
30708;BME280;17458;48.958;8.284;2022-12-07T00:03:00;100567.28;;;8.04;71.55
30708;BME280;17458;48.958;8.284;2022-12-07T00:05:44;100568.22;;;8.05;71.65
30708;BME280;17458;48.958;8.284;2022-12-07T00:08:28;100557.13;;;8.10;71.48
30708;BME280;17458;48.958;8.284;2022-12-07T00:11:16;100569.31;;;8.08;71.84
30708;BME280;17458;48.958;8.284;2022-12-07T00:14:03;100556.44;;;8.00;72.30
30708;BME280;17458;48.958;8.284;2022-12-07T00:16:50;100558.19;;;7.99;72.32
30708;BME280;17458;48.958;8.284;2022-12-07T00:19:34;100555.00;;;8.05;71.88
30708;BME280;17458;48.958;8.284;2022-12-07T00:22:18;100559.13;;;7.73;72.89
30708;BME280;17458;48.958;8.284;2022-12-07T00:25:02;100550.91;;;7.82;72.92
30708;BME280;17458;48.958;8.284;2022-12-07T00:27:47;100567.28;;;7.76;73.40
30708;BME280;17458;48.958;8.284;2022-12-07T00:30:31;100556.22;;;7.69;73.75
30708;BME280;17458;48.958;8.284;2022-12-07T00:33:15;100565.41;;;7.89;73.22
30708;BME280;17458;48.958;8.284;2022-12-07T00:35:59;100549.75;;;7.51;73.83
30708;BME280;17458;48.958;8.284;2022-12-07T00:38:43;100559.47;;;7.65;73.70
30708;BME280;17458;48.958;8.284;2022-12-07T00:41:28;100558.03;;;7.83;72.89
30708;BME280;17458;48.958;8.284;2022-12-07T00:44:13;100559.75;;;7.82;73.16
30708;BME280;17458;48.958;8.284;2022-12-07T00:46:57;100557.91;;;7.81;73.10
30708;BME280;17458;48.958;8.284;2022-12-07T00:49:41;100558.78;;;7.95;72.64
30708;BME280;17458;48.958;8.284;2022-12-07T00:52:24;100561.44;;;7.95;72.88
30708;BME280;17458;48.958;8.284;2022-12-07T00:55:08;100546.03;;;8.03;72.31
30708;BME280;17458;48.958;8.284;2022-12-07T00:57:52;100544.72;;;8.09;72.15
30708;BME280;17458;48.958;8.284;2022-12-07T01:00:37;100549.41;;;8.00;72.03
30708;BME280;17458;48.958;8.284;2022-12-07T01:03:22;100550.63;;;8.05;72.28
30708;BME280;17458;48.958;8.284;2022-12-07T01:06:06;100555.25;;;7.95;72.40
30708;BME280;17458;48.958;8.284;2022-12-07T01:08:50;100559.47;;;8.06;71.79
30708;BME280;17458;48.958;8.284;2022-12-07T01:11:34;100546.97;;;8.03;72.04
30708;BME280;17458;48.958;8.284;2022-12-07T01:14:18;100546.50;;;7.96;72.41
30708;BME280;17458;48.958;8.284;2022-12-07T01:17:02;100552.69;;;7.96;72.11
30708;BME280;17458;48.958;8.284;2022-12-07T01:19:46;100550.81;;;8.08;71.68
30708;BME280;17458;48.958;8.284;2022-12-07T01:22:30;100545.03;;;8.01;71.89
30708;BME280;17458;48.958;8.284;2022-12-07T01:25:14;100549.59;;;8.03;71.90
30708;BME280;17458;48.958;8.284;2022-12-07T01:27:58;100550.97;;;7.97;72.09
30708;BME280;17458;48.958;8.284;2022-12-07T01:30:42;100551.78;;;7.96;72.03
30708;BME280;17458;48.958;8.284;2022-12-07T01:33:27;100561.47;;;7.82;72.48
30708;BME280;17458;48.958;8.284;2022-12-07T01:36:16;100561.44;;;7.95;72.22
30708;BME280;17458;48.958;8.284;2022-12-07T01:39:04;100562.34;;;7.96;71.70
30708;BME280;17458;48.958;8.284;2022-12-07T01:41:48;100564.66;;;7.63;73.11
30708;BME280;17458;48.958;8.284;2022-12-07T01:44:32;100566.13;;;7.86;72.55
30708;BME280;17458;48.958;8.284;2022-12-07T01:47:16;100563.72;;;7.76;72.59
30708;BME280;17458;48.958;8.284;2022-12-07T01:50:00;100545.97;;;7.47;73.61
30708;BME280;17458;48.958;8.284;2022-12-07T01:52:48;100538.59;;;7.15;74.98
30708;BME280;17458;48.958;8.284;2022-12-07T01:55:34;100555.53;;;7.05;75.78
30708;BME280;17458;48.958;8.284;2022-12-07T01:58:20;100553.72;;;7.18;75.01
30708;BME280;17458;48.958;8.284;2022-12-07T02:01:04;100567.03;;;7.32;74.92
30708;BME280;17458;48.958;8.284;2022-12-07T02:03:49;100568.38;;;7.26;74.59
30708;BME280;17458;48.958;8.284;2022-12-07T02:06:35;100567.44;;;6.99;75.33
30708;BME280;17458;48.958;8.284;2022-12-07T02:09:19;100558.50;;;7.36;75.06
30708;BME280;17458;48.958;8.284;2022-12-07T02:12:04;100557.47;;;7.47;74.22
30708;BME280;17458;48.958;8.284;2022-12-07T02:14:49;100558.00;;;7.42;74.44
30708;BME280;17458;48.958;8.284;2022-12-07T02:17:45;100545.97;;;7.60;73.97
30708;BME280;17458;48.958;8.284;2022-12-07T02:33:01;100561.13;;;6.97;75.40
30708;BME280;17458;48.958;8.284;2022-12-07T02:35:55;100555.44;;;7.17;75.71
30708;BME280;17458;48.958;8.284;2022-12-07T02:39:17;100543.16;;;7.31;75.15
30708;BME280;17458;48.958;8.284;2022-12-07T02:42:12;100550.91;;;7.15;75.41
30708;BME280;17458;48.958;8.284;2022-12-07T02:44:58;100545.91;;;7.06;76.05
30708;BME280;17458;48.958;8.284;2022-12-07T02:47:47;100550.16;;;7.30;75.32
30708;BME280;17458;48.958;8.284;2022-12-07T02:50:32;100540.69;;;7.47;74.34
30708;BME280;17458;48.958;8.284;2022-12-07T02:53:36;100544.22;;;7.61;74.26
30708;BME280;17458;48.958;8.284;2022-12-07T03:05:17;100541.97;;;7.80;72.54
30708;BME280;17458;48.958;8.284;2022-12-07T03:08:13;100538.41;;;7.79;72.27
30708;BME280;17458;48.958;8.284;2022-12-07T03:11:06;100533.81;;;7.77;72.51
30708;BME280;17458;48.958;8.284;2022-12-07T03:14:15;100539.63;;;7.85;72.11
30708;BME280;17458;48.958;8.284;2022-12-07T03:17:10;100524.41;;;7.67;72.30
30708;BME280;17458;48.958;8.284;2022-12-07T03:19:58;100518.84;;;7.50;73.31
30708;BME280;17458;48.958;8.284;2022-12-07T03:22:45;100513.81;;;7.26;74.49
30708;BME280;17458;48.958;8.284;2022-12-07T03:25:31;100515.63;;;7.40;73.99
30708;BME280;17458;48.958;8.284;2022-12-07T03:28:19;100516.09;;;7.48;73.86
30708;BME280;17458;48.958;8.284;2022-12-07T03:31:16;100512.72;;;7.64;73.46
30708;BME280;17458;48.958;8.284;2022-12-07T03:34:15;100517.00;;;7.48;74.02
30708;BME280;17458;48.958;8.284;2022-12-07T03:37:22;100515.00;;;7.31;74.12
30708;BME280;17458;48.958;8.284;2022-12-07T03:42:55;100507.09;;;7.18;73.60
30708;BME280;17458;48.958;8.284;2022-12-07T03:45:48;100516.75;;;7.18;73.40
30708;BME280;17458;48.958;8.284;2022-12-07T03:48:46;100518.38;;;6.89;74.49
30708;BME280;17458;48.958;8.284;2022-12-07T03:52:11;100525.59;;;7.05;73.91
30708;BME280;17458;48.958;8.284;2022-12-07T03:55:17;100515.84;;;6.91;74.43
30708;BME280;17458;48.958;8.284;2022-12-07T03:58:03;100514.41;;;7.09;73.85
30708;BME280;17458;48.958;8.284;2022-12-07T04:00:49;100510.38;;;6.88;73.79
30708;BME280;17458;48.958;8.284;2022-12-07T04:03:33;100511.19;;;6.87;73.95
30708;BME280;17458;48.958;8.284;2022-12-07T04:06:17;100517.16;;;6.84;74.85
30708;BME280;17458;48.958;8.284;2022-12-07T04:09:01;100507.00;;;6.77;75.22
30708;BME280;17458;48.958;8.284;2022-12-07T04:11:46;100512.56;;;6.68;75.24
30708;BME280;17458;48.958;8.284;2022-12-07T04:14:30;100505.38;;;6.79;75.09
30708;BME280;17458;48.958;8.284;2022-12-07T04:17:13;100513.41;;;6.94;74.41
30708;BME280;17458;48.958;8.284;2022-12-07T04:19:57;100511.09;;;6.98;74.13
30708;BME280;17458;48.958;8.284;2022-12-07T04:22:41;100505.81;;;6.98;73.85
30708;BME280;17458;48.958;8.284;2022-12-07T04:25:25;100504.69;;;6.95;73.70
30708;BME280;17458;48.958;8.284;2022-12-07T04:28:09;100501.72;;;6.90;74.52
30708;BME280;17458;48.958;8.284;2022-12-07T04:30:53;100498.47;;;6.94;74.15
30708;BME280;17458;48.958;8.284;2022-12-07T04:33:37;100498.69;;;6.97;73.93
30708;BME280;17458;48.958;8.284;2022-12-07T04:36:21;100494.59;;;6.76;75.10
30708;BME280;17458;48.958;8.284;2022-12-07T04:39:07;100494.44;;;6.73;74.46
30708;BME280;17458;48.958;8.284;2022-12-07T04:41:52;100499.78;;;6.74;75.22
30708;BME280;17458;48.958;8.284;2022-12-07T04:44:36;100490.22;;;6.63;76.03
30708;BME280;17458;48.958;8.284;2022-12-07T04:47:20;100501.59;;;6.75;75.60
30708;BME280;17458;48.958;8.284;2022-12-07T04:50:05;100504.97;;;6.73;75.13
30708;BME280;17458;48.958;8.284;2022-12-07T04:52:49;100508.22;;;6.95;74.65
30708;BME280;17458;48.958;8.284;2022-12-07T04:55:33;100501.44;;;6.99;74.46
30708;BME280;17458;48.958;8.284;2022-12-07T04:58:17;100502.34;;;6.73;75.15
30708;BME280;17458;48.958;8.284;2022-12-07T05:01:00;100503.25;;;6.73;75.47
30708;BME280;17458;48.958;8.284;2022-12-07T05:03:44;100505.66;;;6.57;75.87
30708;BME280;17458;48.958;8.284;2022-12-07T05:06:29;100499.97;;;6.64;75.35
30708;BME280;17458;48.958;8.284;2022-12-07T05:09:13;100506.28;;;6.80;74.74
30708;BME280;17458;48.958;8.284;2022-12-07T05:11:57;100507.41;;;6.83;74.95
30708;BME280;17458;48.958;8.284;2022-12-07T05:14:41;100506.97;;;6.64;75.00
30708;BME280;17458;48.958;8.284;2022-12-07T05:17:25;100504.78;;;6.70;74.43
30708;BME280;17458;48.958;8.284;2022-12-07T05:20:09;100501.59;;;6.75;74.63
30708;BME280;17458;48.958;8.284;2022-12-07T05:22:53;100498.66;;;6.45;75.89
30708;BME280;17458;48.958;8.284;2022-12-07T05:25:38;100507.91;;;6.64;75.58
30708;BME280;17458;48.958;8.284;2022-12-07T05:28:22;100499.97;;;6.51;75.44
30708;BME280;17458;48.958;8.284;2022-12-07T05:31:06;100503.63;;;6.53;75.59
30708;BME280;17458;48.958;8.284;2022-12-07T05:33:50;100497.47;;;6.79;74.57
30708;BME280;17458;48.958;8.284;2022-12-07T05:36:35;100502.25;;;7.11;73.52
30708;BME280;17458;48.958;8.284;2022-12-07T05:39:19;100503.25;;;6.87;73.91
30708;BME280;17458;48.958;8.284;2022-12-07T05:42:03;100507.53;;;7.11;73.57
30708;BME280;17458;48.958;8.284;2022-12-07T05:44:56;100510.75;;;6.81;73.84
30708;BME280;17458;48.958;8.284;2022-12-07T05:47:40;100499.50;;;6.83;74.00
30708;BME280;17458;48.958;8.284;2022-12-07T05:50:24;100512.16;;;6.89;74.21
30708;BME280;17458;48.958;8.284;2022-12-07T05:53:17;100510.06;;;6.96;73.33
30708;BME280;17458;48.958;8.284;2022-12-07T05:56:02;100506.28;;;6.80;74.06
30708;BME280;17458;48.958;8.284;2022-12-07T05:58:46;100502.63;;;7.04;73.18
30708;BME280;17458;48.958;8.284;2022-12-07T06:04:45;100495.59;;;6.52;74.50
30708;BME280;17458;48.958;8.284;2022-12-07T06:07:29;100507.09;;;6.65;74.72
30708;BME280;17458;48.958;8.284;2022-12-07T06:10:13;100505.84;;;6.60;73.96
30708;BME280;17458;48.958;8.284;2022-12-07T06:12:57;100501.25;;;6.07;76.37
30708;BME280;17458;48.958;8.284;2022-12-07T06:15:41;100498.78;;;6.21;76.63
30708;BME280;17458;48.958;8.284;2022-12-07T06:18:25;100506.97;;;6.13;76.61
30708;BME280;17458;48.958;8.284;2022-12-07T06:21:09;100507.09;;;6.14;75.67
30708;BME280;17458;48.958;8.284;2022-12-07T06:23:53;100507.81;;;6.25;76.17
30708;BME280;17458;48.958;8.284;2022-12-07T06:26:38;100509.28;;;6.46;75.40
30708;BME280;17458;48.958;8.284;2022-12-07T06:29:22;100508.88;;;6.40;74.67
30708;BME280;17458;48.958;8.284;2022-12-07T06:32:06;100513.59;;;6.70;74.55
30708;BME280;17458;48.958;8.284;2022-12-07T06:34:50;100512.47;;;6.16;76.18
30708;BME280;17458;48.958;8.284;2022-12-07T06:37:34;100518.69;;;6.29;75.67
30708;BME280;17458;48.958;8.284;2022-12-07T06:40:18;100514.41;;;6.56;74.33
30708;BME280;17458;48.958;8.284;2022-12-07T06:43:02;100515.19;;;6.55;75.00
30708;BME280;17458;48.958;8.284;2022-12-07T06:45:45;100518.28;;;6.36;75.62
30708;BME280;17458;48.958;8.284;2022-12-07T06:48:29;100518.16;;;6.22;76.50
30708;BME280;17458;48.958;8.284;2022-12-07T06:51:13;100511.09;;;6.47;75.20
30708;BME280;17458;48.958;8.284;2022-12-07T06:53:57;100514.38;;;6.43;74.96
30708;BME280;17458;48.958;8.284;2022-12-07T06:56:41;100512.28;;;6.26;75.01
30708;BME280;17458;48.958;8.284;2022-12-07T06:59:25;100519.22;;;6.37;75.10
30708;BME280;17458;48.958;8.284;2022-12-07T07:02:09;100518.50;;;6.39;74.43
30708;BME280;17458;48.958;8.284;2022-12-07T07:04:53;100516.47;;;6.35;74.55
30708;BME280;17458;48.958;8.284;2022-12-07T07:07:37;100514.97;;;6.39;73.55
30708;BME280;17458;48.958;8.284;2022-12-07T07:10:21;100514.06;;;6.52;73.64
30708;BME280;17458;48.958;8.284;2022-12-07T07:13:06;100523.34;;;6.33;73.79
30708;BME280;17458;48.958;8.284;2022-12-07T07:15:50;100515.78;;;6.13;74.23
30708;BME280;17458;48.958;8.284;2022-12-07T07:18:34;100520.88;;;6.23;73.57
30708;BME280;17458;48.958;8.284;2022-12-07T07:21:18;100524.63;;;6.14;73.82
30708;BME280;17458;48.958;8.284;2022-12-07T07:24:02;100516.75;;;6.27;72.41
30708;BME280;17458;48.958;8.284;2022-12-07T07:26:46;100523.91;;;6.41;72.82
30708;BME280;17458;48.958;8.284;2022-12-07T07:29:30;100521.16;;;6.39;72.95
30708;BME280;17458;48.958;8.284;2022-12-07T07:32:14;100509.19;;;6.45;72.17
30708;BME280;17458;48.958;8.284;2022-12-07T07:34:58;100521.59;;;6.46;72.89
30708;BME280;17458;48.958;8.284;2022-12-07T07:37:42;100519.91;;;6.34;73.81
30708;BME280;17458;48.958;8.284;2022-12-07T07:40:27;100525.28;;;6.36;73.49
30708;BME280;17458;48.958;8.284;2022-12-07T07:43:13;100523.63;;;6.25;73.05
30708;BME280;17458;48.958;8.284;2022-12-07T07:45:57;100521.25;;;6.03;74.13
30708;BME280;17458;48.958;8.284;2022-12-07T07:48:41;100527.84;;;6.10;74.18
30708;BME280;17458;48.958;8.284;2022-12-07T07:51:24;100524.50;;;6.12;74.07
30708;BME280;17458;48.958;8.284;2022-12-07T07:54:08;100533.28;;;6.24;74.17
30708;BME280;17458;48.958;8.284;2022-12-07T07:56:52;100525.69;;;6.29;73.13
30708;BME280;17458;48.958;8.284;2022-12-07T07:59:36;100530.84;;;6.65;72.35
30708;BME280;17458;48.958;8.284;2022-12-07T08:02:20;100536.91;;;6.51;72.33
30708;BME280;17458;48.958;8.284;2022-12-07T08:05:06;100536.19;;;6.54;72.32
30708;BME280;17458;48.958;8.284;2022-12-07T08:07:50;100536.28;;;5.92;73.68
30708;BME280;17458;48.958;8.284;2022-12-07T08:10:34;100536.75;;;6.36;72.74
30708;BME280;17458;48.958;8.284;2022-12-07T08:13:19;100535.91;;;6.62;71.04
30708;BME280;17458;48.958;8.284;2022-12-07T08:16:05;100536.53;;;6.58;71.48
30708;BME280;17458;48.958;8.284;2022-12-07T08:18:50;100546.16;;;6.58;71.17
30708;BME280;17458;48.958;8.284;2022-12-07T08:21:34;100551.38;;;6.83;70.98
30708;BME280;17458;48.958;8.284;2022-12-07T08:24:18;100554.94;;;6.83;69.98
30708;BME280;17458;48.958;8.284;2022-12-07T08:27:02;100552.09;;;6.93;70.14
30708;BME280;17458;48.958;8.284;2022-12-07T08:29:46;100555.53;;;6.79;70.86
30708;BME280;17458;48.958;8.284;2022-12-07T08:32:30;100551.19;;;6.93;70.18
30708;BME280;17458;48.958;8.284;2022-12-07T08:35:15;100555.84;;;6.84;70.56
30708;BME280;17458;48.958;8.284;2022-12-07T08:37:59;100552.28;;;6.83;70.96
30708;BME280;17458;48.958;8.284;2022-12-07T08:40:43;100559.31;;;7.09;69.59
30708;BME280;17458;48.958;8.284;2022-12-07T08:43:27;100557.91;;;7.14;68.23
30708;BME280;17458;48.958;8.284;2022-12-07T08:46:21;100563.06;;;6.99;69.53
30708;BME280;17458;48.958;8.284;2022-12-07T08:49:16;100563.47;;;7.05;69.69
30708;BME280;17458;48.958;8.284;2022-12-07T08:52:04;100566.75;;;6.63;70.89
30708;BME280;17458;48.958;8.284;2022-12-07T08:54:48;100569.16;;;6.98;69.57
30708;BME280;17458;48.958;8.284;2022-12-07T08:57:34;100568.84;;;7.07;68.79
30708;BME280;17458;48.958;8.284;2022-12-07T09:00:19;100566.63;;;7.13;68.90
30708;BME280;17458;48.958;8.284;2022-12-07T09:03:03;100567.44;;;6.99;68.83
30708;BME280;17458;48.958;8.284;2022-12-07T09:05:47;100567.84;;;7.18;68.74
30708;BME280;17458;48.958;8.284;2022-12-07T09:08:36;100569.28;;;7.39;67.80
30708;BME280;17458;48.958;8.284;2022-12-07T09:11:22;100556.34;;;6.78;68.99
30708;BME280;17458;48.958;8.284;2022-12-07T09:14:06;100564.38;;;7.19;67.71
30708;BME280;17458;48.958;8.284;2022-12-07T09:16:50;100570.47;;;7.18;68.14
30708;BME280;17458;48.958;8.284;2022-12-07T09:19:34;100567.84;;;7.18;67.83
30708;BME280;17458;48.958;8.284;2022-12-07T09:22:18;100570.69;;;7.08;68.11
30708;BME280;17458;48.958;8.284;2022-12-07T09:25:03;100552.63;;;7.14;68.43
30708;BME280;17458;48.958;8.284;2022-12-07T09:27:47;100550.06;;;7.02;68.67
30708;BME280;17458;48.958;8.284;2022-12-07T09:30:32;100554.56;;;7.30;68.16
30708;BME280;17458;48.958;8.284;2022-12-07T09:33:16;100555.59;;;7.60;66.92
30708;BME280;17458;48.958;8.284;2022-12-07T09:36:00;100561.03;;;7.48;66.60
30708;BME280;17458;48.958;8.284;2022-12-07T09:38:44;100567.94;;;7.33;66.50
30708;BME280;17458;48.958;8.284;2022-12-07T09:41:30;100564.97;;;7.68;66.55
30708;BME280;17458;48.958;8.284;2022-12-07T09:44:23;100564.81;;;7.25;66.82
30708;BME280;17458;48.958;8.284;2022-12-07T09:47:09;100564.28;;;7.31;67.23
30708;BME280;17458;48.958;8.284;2022-12-07T09:49:58;100560.44;;;7.26;67.02
30708;BME280;17458;48.958;8.284;2022-12-07T09:52:44;100568.25;;;7.51;66.41
30708;BME280;17458;48.958;8.284;2022-12-07T09:55:30;100560.63;;;7.02;67.03
30708;BME280;17458;48.958;8.284;2022-12-07T09:58:22;100556.47;;;7.06;66.79
30708;BME280;17458;48.958;8.284;2022-12-07T10:01:16;100557.84;;;7.67;66.40
30708;BME280;17458;48.958;8.284;2022-12-07T10:04:18;100547.84;;;7.22;67.53
30708;BME280;17458;48.958;8.284;2022-12-07T10:07:04;100545.91;;;7.19;66.41
30708;BME280;17458;48.958;8.284;2022-12-07T10:09:48;100541.22;;;7.55;65.92
30708;BME280;17458;48.958;8.284;2022-12-07T10:13:08;100548.50;;;7.72;65.37
30708;BME280;17458;48.958;8.284;2022-12-07T10:15:55;100545.78;;;7.44;65.87
30708;BME280;17458;48.958;8.284;2022-12-07T10:18:41;100532.38;;;7.41;65.96
30708;BME280;17458;48.958;8.284;2022-12-07T10:21:26;100533.13;;;7.25;66.23
30708;BME280;17458;48.958;8.284;2022-12-07T10:26:55;100537.75;;;7.56;65.87
30708;BME280;17458;48.958;8.284;2022-12-07T10:29:39;100526.16;;;7.54;65.69
30708;BME280;17458;48.958;8.284;2022-12-07T10:32:34;100519.44;;;7.45;66.16
30708;BME280;17458;48.958;8.284;2022-12-07T10:35:23;100531.44;;;7.54;65.51
30708;BME280;17458;48.958;8.284;2022-12-07T10:38:16;100530.53;;;7.53;65.83
30708;BME280;17458;48.958;8.284;2022-12-07T10:41:05;100525.91;;;7.77;65.03
30708;BME280;17458;48.958;8.284;2022-12-07T10:43:55;100531.44;;;7.54;65.38
30708;BME280;17458;48.958;8.284;2022-12-07T11:05:26;100506.13;;;7.57;66.28
30708;BME280;17458;48.958;8.284;2022-12-07T11:11:05;100501.03;;;7.60;66.25
30708;BME280;17458;48.958;8.284;2022-12-07T11:14:08;100496.28;;;7.55;67.08
30708;BME280;17458;48.958;8.284;2022-12-07T11:17:17;100488.22;;;7.94;66.90
30708;BME280;17458;48.958;8.284;2022-12-07T11:27:03;100469.19;;;8.14;65.88
30708;BME280;17458;48.958;8.284;2022-12-07T11:30:06;100477.59;;;7.79;66.45
30708;BME280;17458;48.958;8.284;2022-12-07T11:33:15;100474.34;;;7.83;65.95
30708;BME280;17458;48.958;8.284;2022-12-07T11:36:29;100466.53;;;8.00;66.97
30708;BME280;17458;48.958;8.284;2022-12-07T11:42:15;100466.25;;;7.95;66.86
30708;BME280;17458;48.958;8.284;2022-12-07T11:45:27;100466.16;;;7.94;67.40
30708;BME280;17458;48.958;8.284;2022-12-07T11:48:33;100460.44;;;8.15;66.15
30708;BME280;17458;48.958;8.284;2022-12-07T11:51:21;100461.25;;;8.14;65.96
30708;BME280;17458;48.958;8.284;2022-12-07T11:54:23;100459.56;;;8.59;65.08
30708;BME280;17458;48.958;8.284;2022-12-07T11:57:17;100457.94;;;8.46;65.73
30708;BME280;17458;48.958;8.284;2022-12-07T12:00:06;100448.16;;;8.45;65.53
30708;BME280;17458;48.958;8.284;2022-12-07T12:02:58;100439.22;;;8.43;66.42
30708;BME280;17458;48.958;8.284;2022-12-07T12:05:45;100440.69;;;8.38;66.62
30708;BME280;17458;48.958;8.284;2022-12-07T12:08:38;100442.44;;;8.38;65.99
30708;BME280;17458;48.958;8.284;2022-12-07T12:17:50;100440.13;;;8.44;65.77
30708;BME280;17458;48.958;8.284;2022-12-07T12:21:09;100436.84;;;8.48;66.24
30708;BME280;17458;48.958;8.284;2022-12-07T12:24:15;100438.38;;;8.30;66.41
30708;BME280;17458;48.958;8.284;2022-12-07T12:27:05;100431.31;;;8.15;67.06
30708;BME280;17458;48.958;8.284;2022-12-07T12:29:55;100429.69;;;8.03;67.08
30708;BME280;17458;48.958;8.284;2022-12-07T12:32:42;100433.81;;;8.12;66.72
30708;BME280;17458;48.958;8.284;2022-12-07T12:35:31;100429.69;;;8.03;67.51
30708;BME280;17458;48.958;8.284;2022-12-07T12:38:32;100435.44;;;8.10;67.50
30708;BME280;17458;48.958;8.284;2022-12-07T12:47:39;100424.50;;;8.19;67.17
30708;BME280;17458;48.958;8.284;2022-12-07T12:50:42;100422.50;;;8.30;66.43
30708;BME280;17458;48.958;8.284;2022-12-07T12:53:26;100420.69;;;8.43;66.42
30708;BME280;17458;48.958;8.284;2022-12-07T12:56:35;100423.06;;;8.68;65.62
30708;BME280;17458;48.958;8.284;2022-12-07T12:59:26;100417.47;;;8.78;65.38
30708;BME280;17458;48.958;8.284;2022-12-07T13:02:36;100418.19;;;8.17;66.69
30708;BME280;17458;48.958;8.284;2022-12-07T13:05:23;100413.13;;;8.35;66.72
30708;BME280;17458;48.958;8.284;2022-12-07T13:08:17;100405.28;;;8.51;66.61
30708;BME280;17458;48.958;8.284;2022-12-07T13:11:25;100406.09;;;8.50;66.47
30708;BME280;17458;48.958;8.284;2022-12-07T13:26:41;100388.22;;;8.46;65.81
30708;BME280;17458;48.958;8.284;2022-12-07T13:29:26;100388.41;;;8.49;66.69
30708;BME280;17458;48.958;8.284;2022-12-07T13:32:23;100387.84;;;8.25;66.40
30708;BME280;17458;48.958;8.284;2022-12-07T13:35:33;100382.72;;;8.43;66.51
30708;BME280;17458;48.958;8.284;2022-12-07T13:38:28;100383.03;;;8.33;66.46
30708;BME280;17458;48.958;8.284;2022-12-07T13:41:18;100385.19;;;8.10;66.86
30708;BME280;17458;48.958;8.284;2022-12-07T13:44:11;100373.06;;;8.14;67.49
30708;BME280;17458;48.958;8.284;2022-12-07T13:47:16;100376.44;;;8.26;66.79
30708;BME280;17458;48.958;8.284;2022-12-07T13:50:25;100381.63;;;7.95;67.33
30708;BME280;17458;48.958;8.284;2022-12-07T13:53:13;100368.59;;;7.98;67.34
30708;BME280;17458;48.958;8.284;2022-12-07T13:55:59;100373.94;;;8.14;66.73
30708;BME280;17458;48.958;8.284;2022-12-07T13:58:43;100373.78;;;7.82;67.15
30708;BME280;17458;48.958;8.284;2022-12-07T14:01:30;100370.13;;;7.95;67.28
30708;BME280;17458;48.958;8.284;2022-12-07T14:07:26;100372.50;;;8.05;66.72
30708;BME280;17458;48.958;8.284;2022-12-07T14:10:28;100370.44;;;8.14;66.88
30708;BME280;17458;48.958;8.284;2022-12-07T14:13:33;100374.16;;;8.17;66.79
30708;BME280;17458;48.958;8.284;2022-12-07T14:19:04;100372.59;;;8.06;66.71
30708;BME280;17458;48.958;8.284;2022-12-07T14:22:06;100372.84;;;7.81;67.56
30708;BME280;17458;48.958;8.284;2022-12-07T14:24:57;100369.91;;;7.77;67.06
30708;BME280;17458;48.958;8.284;2022-12-07T14:27:52;100373.78;;;7.97;67.89
30708;BME280;17458;48.958;8.284;2022-12-07T14:30:41;100374.13;;;8.03;67.45
30708;BME280;17458;48.958;8.284;2022-12-07T14:33:25;100379.44;;;8.03;66.33
30708;BME280;17458;48.958;8.284;2022-12-07T14:36:11;100379.72;;;8.07;66.77
30708;BME280;17458;48.958;8.284;2022-12-07T14:38:55;100383.81;;;8.17;65.99
30708;BME280;17458;48.958;8.284;2022-12-07T14:41:42;100374.31;;;8.06;65.87
30708;BME280;17458;48.958;8.284;2022-12-07T14:44:35;100382.06;;;8.03;65.86
30708;BME280;17458;48.958;8.284;2022-12-07T14:47:19;100372.13;;;7.84;66.88
30708;BME280;17458;48.958;8.284;2022-12-07T14:50:03;100378.88;;;7.79;66.64
30708;BME280;17458;48.958;8.284;2022-12-07T14:52:51;100382.28;;;8.21;66.22
30708;BME280;17458;48.958;8.284;2022-12-07T14:55:35;100384.81;;;8.19;65.13
30708;BME280;17458;48.958;8.284;2022-12-07T14:58:20;100380.97;;;8.29;65.10
30708;BME280;17458;48.958;8.284;2022-12-07T15:01:04;100377.69;;;8.18;65.38
30708;BME280;17458;48.958;8.284;2022-12-07T15:03:48;100375.88;;;8.17;65.91
30708;BME280;17458;48.958;8.284;2022-12-07T15:06:32;100374.44;;;8.07;66.59
30708;BME280;17458;48.958;8.284;2022-12-07T15:09:17;100376.53;;;8.28;65.71
30708;BME280;17458;48.958;8.284;2022-12-07T15:12:00;100378.38;;;8.14;65.77
30708;BME280;17458;48.958;8.284;2022-12-07T15:14:44;100372.16;;;8.13;65.93
30708;BME280;17458;48.958;8.284;2022-12-07T15:17:28;100369.09;;;7.78;66.81
30708;BME280;17458;48.958;8.284;2022-12-07T15:20:14;100368.03;;;7.89;66.80
30708;BME280;17458;48.958;8.284;2022-12-07T15:23:00;100367.09;;;7.74;67.28
30708;BME280;17458;48.958;8.284;2022-12-07T15:25:45;100367.75;;;7.85;67.17
30708;BME280;17458;48.958;8.284;2022-12-07T15:28:30;100359.00;;;8.00;66.57
30708;BME280;17458;48.958;8.284;2022-12-07T15:31:15;100370.66;;;7.74;68.05
30708;BME280;17458;48.958;8.284;2022-12-07T15:33:59;100366.38;;;7.91;67.32
30708;BME280;17458;48.958;8.284;2022-12-07T15:36:43;100363.81;;;7.78;67.71
30708;BME280;17458;48.958;8.284;2022-12-07T15:39:28;100366.84;;;7.84;67.55
30708;BME280;17458;48.958;8.284;2022-12-07T15:42:11;100360.50;;;7.53;68.21
30708;BME280;17458;48.958;8.284;2022-12-07T15:44:55;100363.38;;;7.85;67.63
30708;BME280;17458;48.958;8.284;2022-12-07T15:47:49;100363.75;;;8.06;67.17
30708;BME280;17458;48.958;8.284;2022-12-07T15:50:32;100362.66;;;8.02;66.97
30708;BME280;17458;48.958;8.284;2022-12-07T15:53:17;100358.63;;;7.79;67.44
30708;BME280;17458;48.958;8.284;2022-12-07T15:56:01;100357.44;;;7.74;67.72
30708;BME280;17458;48.958;8.284;2022-12-07T15:58:49;100353.72;;;7.71;68.55
30708;BME280;17458;48.958;8.284;2022-12-07T16:01:32;100351.88;;;7.70;67.95
30708;BME280;17458;48.958;8.284;2022-12-07T16:04:17;100347.97;;;7.78;67.73
30708;BME280;17458;48.958;8.284;2022-12-07T16:07:01;100336.19;;;7.73;68.42
30708;BME280;17458;48.958;8.284;2022-12-07T16:09:45;100336.38;;;7.76;68.22
30708;BME280;17458;48.958;8.284;2022-12-07T16:12:30;100336.53;;;7.50;68.20
30708;BME280;17458;48.958;8.284;2022-12-07T16:15:14;100330.78;;;7.42;68.94
30708;BME280;17458;48.958;8.284;2022-12-07T16:17:58;100327.06;;;7.53;68.67
30708;BME280;17458;48.958;8.284;2022-12-07T16:20:42;100318.81;;;7.06;69.73